Station: Coffs Harbour Airport  

  Atmospheric Gas Attenuation - ITU Rec 676-11   ----------------- dB/100km -----------------
Date Time Temp RH % AH g/m3 Dew Point Wind Direction Speed kph Gust kph Barometer mB Rainfall Since 9am 24GHz 47GHz 76GHz 122GHz 134GHz 241GHz
08/05 12:30 19.5 37 6.21 4.4 11 15 1017.6 0 14.3 21.0 28.7 74.9 63.8 217.8
08/05 12:20 19.4 38 6.34 4.7 11 13 1017.8 0 14.6 21.2 29.2 76.2 65.3 223.2
08/05 12:10 19.5 37 6.21 4.4 13 15 1017.9 0 14.3 21.0 28.8 74.9 63.8 217.8
08/05 12:00 19.7 31 5.26 2.1 11 17 1018.1 0 12.3 19.7 25.5 66.3 53.2 180.7
08/05 11:50 19.8 31 5.29 2.2 13 15 1018.2 0 12.4 19.7 25.6 66.5 53.5 181.6
08/05 11:40 19.4 32 5.34 2.3 11 13 1018.3 0 12.5 19.9 25.9 67.3 54.3 184.4
08/05 11:30 19.6 29 4.9 1.1 9 17 1018.5 0 11.6 19.3 24.4 63.3 49.5 167.4
08/05 11:20 19 36 5.87 3.6 9 11 1018.8 0 13.6 20.7 27.8 72.4 60.4 205.9
08/05 11:10 19 37 6.03 4 7 9 1018.9 0 13.9 20.9 28.4 73.8 62.2 212.2
08/05 11:00 18.4 36 5.66 3.1 13 19 1019.1 0 13.2 20.6 27.3 71.0 58.5 199.2
08/05 10:50 18.3 36 5.63 3 11 15 1019.3 0 13.1 20.5 27.2 70.9 58.3 198.3
08/05 10:40 18.3 35 5.47 2.6 13 15 1019.4 0 12.8 20.3 26.7 69.4 56.5 192.1
08/05 10:30 17.7 31 4.68 0.4 15 22 1019.5 0 11.2 19.4 24.3 62.9 48.3 163.0
08/05 10:20 17.2 31 4.54 -0.1 13 15 1019.8 0 10.9 19.3 24.0 62.1 47.1 158.7
08/05 10:10 17.1 32 4.66 0.3 17 24 1019.9 0 11.1 19.5 24.4 63.3 48.4 163.4
08/05 10:00 16.9 33 4.75 0.5 15 22 1020 0 11.3 19.7 24.8 64.2 49.5 167.3
08/05 09:50 16.7 33 4.69 0.4 13 15 1020.1 0 11.2 19.6 24.6 63.8 49.0 165.4
08/05 09:40 16.4 35 4.88 0.9 13 15 1020.2 0 11.6 20.0 25.4 65.8 51.3 173.4
08/05 09:30 16.5 35 4.91 1 13 20 1020.2 0 11.7 20.0 25.4 66.0 51.6 174.4
08/05 09:20 16 35 4.77 0.6 13 13 1020.2 0 11.4 19.9 25.1 65.1 50.3 170.0
08/05 09:10 15.8 35 4.71 0.4 13 13 1020.3 0 11.3 19.9 25.0 64.7 49.8 168.0
08/05 09:00 15.4 33 4.34 -0.8 15 20 1020.4 0 10.5 19.4 23.9 61.8 45.9 154.5
08/05 08:50 15.2 37 4.8 0.6 11 13 1020.6 0 11.5 20.1 25.5 66.1 51.2 172.9
08/05 08:40 14.9 40 5.1 1.4 11 13 1020.5 0 12.1 20.6 26.6 69.0 54.8 185.4
08/05 08:30 14.7 39 4.91 0.9 13 17 1020.5 0 11.7 20.4 26.0 67.5 52.7 178.3
08/05 08:20 14.4 40 4.94 1 9 11 1020.6 0 11.8 20.5 26.2 68.0 53.3 180.2
08/05 08:10 13.8 39 4.65 0.1 13 15 1020.5 0 11.2 20.2 25.4 65.8 50.3 169.8
08/05 08:00 13.3 41 4.74 0.3 13 19 1020.5 0 11.4 20.4 25.8 67.0 51.7 174.5
08/05 07:50 12.7 51 5.68 2.8 11 13 1020.5 0 13.4 21.9 29.4 76.5 63.2 214.7
08/05 07:40 12.1 50 5.36 2 13 15 1020.4 0 12.8 21.6 28.4 74.0 59.8 202.8
08/05 07:30 11.4 51 5.24 1.6 13 17 1020.5 0 12.5 21.6 28.2 73.4 58.9 199.5
08/05 07:20 10.2 54 5.14 1.3 13 15 1020.5 0 12.4 21.7 28.3 73.6 58.5 198.2
08/05 07:10 8.5 70 5.98 3.4 13 15 1020.5 0 14.2 23.4 32.1 83.7 70.5 239.7
08/05 07:00 7.9 83 6.82 5.2 9 11 1020.5 0 16.0 24.9 35.7 93.4 82.1 280.5
08/05 06:50 7.5 82 6.57 4.6 7 9 1020.5 0 15.5 24.6 34.9 91.1 79.2 270.2
08/05 06:40 6.8 76 5.82 2.9 9 9 1020.4 0 13.9 23.6 32.2 83.9 69.9 237.6
08/05 06:30 7.4 65 5.17 1.3 13 17 1020.3 0 12.5 22.4 29.4 76.5 61.0 206.5
08/05 06:20 7.5 64 5.13 1.1 15 15 1020.1 0 12.4 22.3 29.2 75.9 60.4 204.4
08/05 06:10 6.8 71 5.43 1.9 13 13 1020.1 0 13.1 23.0 30.6 79.7 64.8 219.7
08/05 06:00 6.7 73 5.55 2.2 13 15 1020 0 13.4 23.2 31.1 81.1 66.4 225.4
08/05 05:50 6.6 74 5.59 2.3 13 15 1020 0 13.4 23.3 31.3 81.6 67.0 227.5
08/05 05:40 6.7 74 5.63 2.4 13 15 1019.9 0 13.5 23.3 31.4 81.9 67.5 229.0
08/05 05:30 7.6 69 5.56 2.3 13 13 1019.9 0 13.3 23.0 30.8 80.3 65.8 223.3
08/05 05:20 8.1 60 4.99 0.8 11 13 1019.7 0 12.1 22.0 28.4 73.9 58.2 196.7
08/05 05:10 8.7 54 4.67 -0.1 13 13 1019.7 0 11.4 21.4 27.0 70.2 53.9 181.5
08/05 05:00 8.7 53 4.59 -0.3 13 17 1019.7 0 11.2 21.2 26.8 69.4 52.9 178.1
08/05 04:50 9.2 49 4.38 -0.9 13 15 1019.6 0 10.8 20.8 25.8 67.0 50.0 168.1
08/05 04:40 9.3 48 4.32 -1.1 11 11 1019.6 0 10.6 20.7 25.6 66.3 49.3 165.4
08/05 04:30 9.3 50 4.49 -0.6 13 19 1019.5 0 11.0 20.9 26.2 67.9 51.3 172.5
08/05 04:20 9 53 4.67 -0.1 15 17 1019.3 0 11.4 21.3 26.9 69.9 53.6 180.8
08/05 04:10 9.4 48 4.34 -1 13 15 1019.3 0 10.7 20.7 25.6 66.4 49.4 166.0
08/05 04:00 9 51 4.5 -0.6 13 19 1019.2 0 11.0 21.0 26.3 68.3 51.6 173.6
08/05 03:50 9.5 48 4.37 -0.9 11 13 1019.2 0 10.7 20.7 25.7 66.6 49.7 167.0
08/05 03:40 9.4 49 4.43 -0.8 11 13 1019.2 0 10.9 20.8 25.9 67.2 50.5 169.8
08/05 03:30 9 51 4.5 -0.6 13 17 1019.2 0 11.0 21.0 26.3 68.3 51.6 173.6
08/05 03:20 8.3 62 5.23 1.5 13 13 1019.1 0 12.6 22.3 29.2 76.1 61.0 206.6
08/05 03:10 9.6 49 4.49 -0.6 9 9 1019.1 0 11.0 20.9 26.1 67.6 51.1 171.8
08/05 03:00 9.5 50 4.55 -0.4 17 22 1019 0 11.1 21.0 26.3 68.3 51.8 174.6
08/05 02:50 9.7 49 4.52 -0.5 17 19 1019 0 11.1 20.9 26.2 67.8 51.4 172.9
08/05 02:40 10.1 47 4.45 -0.7 17 20 1019.1 0 10.9 20.7 25.8 66.8 50.3 169.1
08/05 02:30 10.3 46 4.41 -0.8 17 24 1019.1 0 10.8 20.6 25.6 66.3 49.7 167.1
08/05 02:20 10.1 48 4.54 -0.4 15 17 1019.1 0 11.1 20.8 26.1 67.7 51.3 172.9
08/05 02:10 10 48 4.51 -0.5 17 19 1019.1 0 11.0 20.8 26.0 67.5 51.1 171.8
08/05 02:00 10 49 4.61 -0.2 17 24 1019 0 11.2 20.9 26.4 68.5 52.2 176.0
08/05 01:50 10.1 48 4.54 -0.4 19 20 1019.1 0 11.1 20.8 26.1 67.7 51.3 172.9
08/05 01:40 10 50 4.7 0.1 19 20 1019 0 11.4 21.1 26.7 69.3 53.3 179.8
08/05 01:30 10.3 48 4.6 -0.2 15 20 1019.1 0 11.2 20.9 26.3 68.1 51.9 174.9
08/05 01:20 10.6 45 4.39 -0.8 15 17 1019.2 0 10.8 20.5 25.4 65.9 49.3 165.6
08/05 01:10 10.3 48 4.6 -0.2 15 15 1019.1 0 11.2 20.9 26.3 68.1 51.9 174.9
08/05 01:00 9.4 54 4.89 0.6 13 17 1019 0 11.9 21.5 27.6 71.7 56.0 189.2
08/05 00:50 9.8 61 5.66 2.6 11 13 1019.2 0 13.5 22.6 30.3 79.0 65.2 221.5
08/05 00:40 11.4 43 4.41 -0.7 9 11 1019.2 0 10.8 20.3 25.2 65.4 49.0 164.8
08/05 00:20 12.2 37 3.99 -2 9 11 1019 0 9.9 19.6 23.5 60.9 43.8 146.4
08/05 00:10 11.7 40 4.18 -1.4 11 13 1018.9 0 10.3 19.9 24.3 63.0 46.2 154.9
08/05 00:00 11.4 47 4.83 0.5 13 17 1019 0 11.7 20.9 26.7 69.4 53.9 182.1
07/05 23:50 12.6 37 4.09 -1.7 11 11 1019.1 0 10.1 19.6 23.8 61.5 44.7 149.7
07/05 23:40 11.8 42 4.42 -0.7 11 15 1019.2 0 10.8 20.3 25.2 65.2 48.9 164.4
07/05 23:30 10.7 52 5.11 1.3 13 19 1019 0 12.3 21.5 28.0 72.7 57.7 195.4
07/05 23:20 12.2 42 4.53 -0.3 9 9 1019.2 0 11.0 20.3 25.4 65.9 49.9 168.1
07/05 23:10 13 38 4.31 -1 11 11 1019.1 0 10.5 19.9 24.4 63.2 46.9 157.6
07/05 23:00 13.6 36 4.24 -1.2 9 13 1019.1 0 10.3 19.6 24.0 62.1 45.8 153.7
07/05 22:50 13.9 34 4.08 -1.7 13 15 1019.1 0 10.0 19.4 23.4 60.5 43.8 146.9
07/05 22:40 14.5 32 3.98 -2 15 15 1019 0 9.8 19.1 22.9 59.1 42.4 142.0
07/05 22:30 14.7 32 4.03 -1.8 19 28 1018.8 0 9.9 19.1 23.0 59.4 42.9 143.6
07/05 22:20 14.5 34 4.23 -1.2 20 24 1018.9 0 10.3 19.4 23.7 61.3 45.2 151.7
07/05 22:10 14.6 36 4.5 -0.3 19 22 1019 0 10.9 19.8 24.6 63.7 48.1 162.0
07/05 22:00 14.9 35 4.46 -0.4 17 28 1019 0 10.8 19.7 24.4 63.1 47.5 159.9
07/05 21:50 14.9 36 4.59 0 15 17 1019 0 11.0 19.8 24.8 64.3 48.9 165.0
07/05 21:40 15 36 4.62 0.1 19 22 1018.9 0 11.1 19.9 24.9 64.5 49.2 165.9
07/05 21:30 15.2 37 4.8 0.6 15 20 1019.1 0 11.5 20.1 25.4 65.9 51.1 172.6
07/05 21:20 15.5 38 5.02 1.3 13 15 1019 0 11.9 20.3 26.1 67.7 53.4 180.7
07/05 21:10 15.7 40 5.35 2.2 19 24 1018.7 0 12.6 20.7 27.1 70.5 57.0 193.3
07/05 21:00 16.1 41 5.62 2.9 26 39 1018.6 0 13.2 21.0 27.9 72.7 59.8 203.2
07/05 20:50 16.1 43 5.89 3.5 30 39 1018.4 0 13.7 21.4 28.9 75.2 62.9 214.1
07/05 20:40 16.3 45 6.24 4.4 24 28 1018.1 0 14.5 21.8 30.0 78.2 66.7 227.8
07/05 20:30 16.7 48 6.82 5.6 19 24 1017.9 0 15.7 22.5 31.9 83.4 73.2 250.6
07/05 20:20 16.7 50 7.11 6.2 19 22 1017.6 0 16.3 23.0 33.0 86.2 76.7 262.8
07/05 20:10 16.8 51 7.29 6.6 26 28 1017.7 0 16.7 23.2 33.6 87.8 78.8 270.1
07/05 20:00 17.1 50 7.28 6.6 22 32 1017.3 0 16.6 23.1 33.4 87.4 78.3 268.6
07/05 19:50 17.6 48 7.2 6.5 24 28 1017.1 0 16.4 22.9 32.9 86.0 76.9 263.5

Last Refresh: 08-May-2026 12:08:29

Bureau of Meteorology